sensor_id;sensor_type;location;lat;lon;timestamp;P1;durP1;ratioP1;P2;durP2;ratioP2
54517;SDS011;40423;53.176;6.002;2023-06-14T00:00:52;6.32;;;2.22;;
54517;SDS011;40423;53.176;6.002;2023-06-14T00:03:18;8.00;;;2.63;;
54517;SDS011;40423;53.176;6.002;2023-06-14T00:05:47;7.72;;;2.50;;
54517;SDS011;40423;53.176;6.002;2023-06-14T00:08:13;7.55;;;2.88;;
54517;SDS011;40423;53.176;6.002;2023-06-14T00:10:39;3.00;;;1.70;;
54517;SDS011;40423;53.176;6.002;2023-06-14T00:13:07;6.75;;;1.80;;
54517;SDS011;40423;53.176;6.002;2023-06-14T00:15:34;4.97;;;2.25;;
54517;SDS011;40423;53.176;6.002;2023-06-14T00:18:00;5.18;;;2.13;;
54517;SDS011;40423;53.176;6.002;2023-06-14T00:20:26;3.35;;;2.00;;
54517;SDS011;40423;53.176;6.002;2023-06-14T00:22:53;8.60;;;2.42;;
54517;SDS011;40423;53.176;6.002;2023-06-14T00:25:22;3.92;;;2.20;;
54517;SDS011;40423;53.176;6.002;2023-06-14T00:27:51;3.08;;;1.98;;
54517;SDS011;40423;53.176;6.002;2023-06-14T00:30:17;5.78;;;2.17;;
54517;SDS011;40423;53.176;6.002;2023-06-14T00:32:44;4.95;;;2.10;;
54517;SDS011;40423;53.176;6.002;2023-06-14T00:35:10;3.38;;;1.67;;
54517;SDS011;40423;53.176;6.002;2023-06-14T00:37:36;5.05;;;2.00;;
54517;SDS011;40423;53.176;6.002;2023-06-14T00:40:03;3.67;;;2.00;;
54517;SDS011;40423;53.176;6.002;2023-06-14T00:42:29;6.20;;;2.30;;
54517;SDS011;40423;53.176;6.002;2023-06-14T00:44:55;7.18;;;2.45;;
54517;SDS011;40423;53.176;6.002;2023-06-14T00:47:21;2.95;;;1.70;;
54517;SDS011;40423;53.176;6.002;2023-06-14T00:49:47;4.45;;;1.52;;
54517;SDS011;40423;53.176;6.002;2023-06-14T00:52:15;5.68;;;1.80;;
54517;SDS011;40423;53.176;6.002;2023-06-14T00:54:42;4.55;;;2.10;;
54517;SDS011;40423;53.176;6.002;2023-06-14T00:57:09;3.47;;;1.63;;
54517;SDS011;40423;53.176;6.002;2023-06-14T00:59:43;3.13;;;2.03;;
54517;SDS011;40423;53.176;6.002;2023-06-14T01:02:11;9.05;;;2.00;;
54517;SDS011;40423;53.176;6.002;2023-06-14T01:04:37;6.28;;;2.50;;
54517;SDS011;40423;53.176;6.002;2023-06-14T01:10:08;5.68;;;1.70;;
54517;SDS011;40423;53.176;6.002;2023-06-14T01:15:27;4.32;;;2.10;;
54517;SDS011;40423;53.176;6.002;2023-06-14T01:17:56;3.55;;;1.98;;
54517;SDS011;40423;53.176;6.002;2023-06-14T01:20:28;4.30;;;1.63;;
54517;SDS011;40423;53.176;6.002;2023-06-14T01:22:55;6.72;;;1.90;;
54517;SDS011;40423;53.176;6.002;2023-06-14T01:25:22;2.88;;;1.60;;
54517;SDS011;40423;53.176;6.002;2023-06-14T01:27:49;4.80;;;1.88;;
54517;SDS011;40423;53.176;6.002;2023-06-14T01:30:17;5.57;;;1.88;;
54517;SDS011;40423;53.176;6.002;2023-06-14T01:32:45;4.30;;;1.67;;
54517;SDS011;40423;53.176;6.002;2023-06-14T01:35:11;3.83;;;1.58;;
54517;SDS011;40423;53.176;6.002;2023-06-14T01:37:37;5.07;;;2.17;;
54517;SDS011;40423;53.176;6.002;2023-06-14T01:40:05;3.00;;;1.50;;
54517;SDS011;40423;53.176;6.002;2023-06-14T01:42:35;4.50;;;1.80;;
54517;SDS011;40423;53.176;6.002;2023-06-14T01:45:03;5.57;;;1.70;;
54517;SDS011;40423;53.176;6.002;2023-06-14T01:47:31;3.22;;;1.70;;
54517;SDS011;40423;53.176;6.002;2023-06-14T01:49:58;4.40;;;1.90;;
54517;SDS011;40423;53.176;6.002;2023-06-14T01:52:23;5.45;;;2.13;;
54517;SDS011;40423;53.176;6.002;2023-06-14T01:54:49;5.38;;;2.50;;
54517;SDS011;40423;53.176;6.002;2023-06-14T01:57:15;2.83;;;1.58;;
54517;SDS011;40423;53.176;6.002;2023-06-14T01:59:41;5.13;;;1.98;;
54517;SDS011;40423;53.176;6.002;2023-06-14T02:02:07;4.25;;;1.80;;
54517;SDS011;40423;53.176;6.002;2023-06-14T02:04:33;4.60;;;1.60;;
54517;SDS011;40423;53.176;6.002;2023-06-14T02:06:59;5.22;;;2.00;;
54517;SDS011;40423;53.176;6.002;2023-06-14T02:09:25;3.85;;;1.65;;
54517;SDS011;40423;53.176;6.002;2023-06-14T02:11:50;2.40;;;1.52;;
54517;SDS011;40423;53.176;6.002;2023-06-14T02:14:16;4.95;;;1.55;;
54517;SDS011;40423;53.176;6.002;2023-06-14T02:16:42;4.32;;;1.73;;
54517;SDS011;40423;53.176;6.002;2023-06-14T02:19:17;5.55;;;1.73;;
54517;SDS011;40423;53.176;6.002;2023-06-14T02:21:44;7.65;;;1.92;;
54517;SDS011;40423;53.176;6.002;2023-06-14T02:24:10;3.28;;;1.67;;
54517;SDS011;40423;53.176;6.002;2023-06-14T02:26:36;5.07;;;2.05;;
54517;SDS011;40423;53.176;6.002;2023-06-14T02:29:06;5.32;;;2.10;;
54517;SDS011;40423;53.176;6.002;2023-06-14T02:31:36;4.18;;;1.92;;
54517;SDS011;40423;53.176;6.002;2023-06-14T02:34:01;6.07;;;2.00;;
54517;SDS011;40423;53.176;6.002;2023-06-14T02:36:27;5.50;;;2.20;;
54517;SDS011;40423;53.176;6.002;2023-06-14T02:38:55;2.50;;;1.33;;
54517;SDS011;40423;53.176;6.002;2023-06-14T02:41:24;3.90;;;1.80;;
54517;SDS011;40423;53.176;6.002;2023-06-14T02:43:51;3.75;;;1.92;;
54517;SDS011;40423;53.176;6.002;2023-06-14T02:46:17;7.90;;;1.70;;
54517;SDS011;40423;53.176;6.002;2023-06-14T02:48:43;4.70;;;2.20;;
54517;SDS011;40423;53.176;6.002;2023-06-14T02:51:08;5.63;;;1.85;;
54517;SDS011;40423;53.176;6.002;2023-06-14T02:53:35;8.48;;;2.20;;
54517;SDS011;40423;53.176;6.002;2023-06-14T02:56:01;4.78;;;2.25;;
54517;SDS011;40423;53.176;6.002;2023-06-14T02:58:29;3.47;;;1.85;;
54517;SDS011;40423;53.176;6.002;2023-06-14T03:00:55;3.95;;;2.00;;
54517;SDS011;40423;53.176;6.002;2023-06-14T03:03:21;6.10;;;2.50;;
54517;SDS011;40423;53.176;6.002;2023-06-14T03:05:50;2.88;;;1.90;;
54517;SDS011;40423;53.176;6.002;2023-06-14T03:08:16;6.93;;;2.58;;
54517;SDS011;40423;53.176;6.002;2023-06-14T03:10:47;6.03;;;2.17;;
54517;SDS011;40423;53.176;6.002;2023-06-14T03:13:14;6.57;;;2.00;;
54517;SDS011;40423;53.176;6.002;2023-06-14T03:15:46;4.80;;;2.25;;
54517;SDS011;40423;53.176;6.002;2023-06-14T03:18:12;5.70;;;2.08;;
54517;SDS011;40423;53.176;6.002;2023-06-14T03:20:40;4.40;;;2.00;;
54517;SDS011;40423;53.176;6.002;2023-06-14T03:23:07;4.13;;;2.20;;
54517;SDS011;40423;53.176;6.002;2023-06-14T03:25:33;3.90;;;2.40;;
54517;SDS011;40423;53.176;6.002;2023-06-14T03:28:09;5.47;;;2.70;;
54517;SDS011;40423;53.176;6.002;2023-06-14T03:30:35;3.40;;;1.88;;
54517;SDS011;40423;53.176;6.002;2023-06-14T03:33:01;6.50;;;2.28;;
54517;SDS011;40423;53.176;6.002;2023-06-14T03:35:28;4.72;;;2.20;;
54517;SDS011;40423;53.176;6.002;2023-06-14T03:37:54;5.18;;;2.45;;
54517;SDS011;40423;53.176;6.002;2023-06-14T03:40:20;4.10;;;2.30;;
54517;SDS011;40423;53.176;6.002;2023-06-14T03:42:46;4.50;;;2.20;;
54517;SDS011;40423;53.176;6.002;2023-06-14T03:45:12;8.95;;;2.85;;
54517;SDS011;40423;53.176;6.002;2023-06-14T03:47:38;4.07;;;2.17;;
54517;SDS011;40423;53.176;6.002;2023-06-14T03:50:04;4.32;;;2.75;;
54517;SDS011;40423;53.176;6.002;2023-06-14T03:52:30;5.97;;;2.40;;
54517;SDS011;40423;53.176;6.002;2023-06-14T03:54:56;6.28;;;2.53;;
54517;SDS011;40423;53.176;6.002;2023-06-14T03:57:24;6.65;;;2.53;;
54517;SDS011;40423;53.176;6.002;2023-06-14T03:59:50;5.80;;;2.45;;
54517;SDS011;40423;53.176;6.002;2023-06-14T04:02:16;7.05;;;2.83;;
54517;SDS011;40423;53.176;6.002;2023-06-14T04:04:43;7.20;;;2.85;;
54517;SDS011;40423;53.176;6.002;2023-06-14T04:07:11;5.70;;;2.72;;
54517;SDS011;40423;53.176;6.002;2023-06-14T04:09:38;4.03;;;2.17;;
54517;SDS011;40423;53.176;6.002;2023-06-14T04:12:04;5.30;;;2.58;;
54517;SDS011;40423;53.176;6.002;2023-06-14T04:14:31;3.85;;;2.40;;
54517;SDS011;40423;53.176;6.002;2023-06-14T04:16:58;10.95;;;2.70;;
54517;SDS011;40423;53.176;6.002;2023-06-14T04:19:24;4.57;;;2.78;;
54517;SDS011;40423;53.176;6.002;2023-06-14T04:21:50;5.95;;;2.90;;
54517;SDS011;40423;53.176;6.002;2023-06-14T04:24:16;6.97;;;2.78;;
54517;SDS011;40423;53.176;6.002;2023-06-14T04:26:42;5.10;;;2.50;;
54517;SDS011;40423;53.176;6.002;2023-06-14T04:29:13;3.45;;;2.63;;
54517;SDS011;40423;53.176;6.002;2023-06-14T04:31:41;6.60;;;2.83;;
54517;SDS011;40423;53.176;6.002;2023-06-14T04:34:07;6.70;;;2.97;;
54517;SDS011;40423;53.176;6.002;2023-06-14T04:36:34;5.97;;;2.78;;
54517;SDS011;40423;53.176;6.002;2023-06-14T04:39:02;6.20;;;2.53;;
54517;SDS011;40423;53.176;6.002;2023-06-14T04:41:29;5.68;;;2.75;;
54517;SDS011;40423;53.176;6.002;2023-06-14T04:44:00;5.38;;;2.70;;
54517;SDS011;40423;53.176;6.002;2023-06-14T04:46:27;3.70;;;2.42;;
54517;SDS011;40423;53.176;6.002;2023-06-14T04:48:53;5.32;;;3.03;;
54517;SDS011;40423;53.176;6.002;2023-06-14T04:51:19;8.52;;;3.40;;
54517;SDS011;40423;53.176;6.002;2023-06-14T04:53:57;6.28;;;2.78;;
54517;SDS011;40423;53.176;6.002;2023-06-14T04:56:23;5.75;;;3.00;;
54517;SDS011;40423;53.176;6.002;2023-06-14T04:58:50;5.38;;;2.83;;
54517;SDS011;40423;53.176;6.002;2023-06-14T05:01:30;6.47;;;2.85;;
54517;SDS011;40423;53.176;6.002;2023-06-14T05:03:59;6.03;;;3.00;;
54517;SDS011;40423;53.176;6.002;2023-06-14T05:06:25;4.57;;;3.00;;
54517;SDS011;40423;53.176;6.002;2023-06-14T05:08:53;4.20;;;2.33;;
54517;SDS011;40423;53.176;6.002;2023-06-14T05:11:19;5.03;;;2.47;;
54517;SDS011;40423;53.176;6.002;2023-06-14T05:13:45;7.93;;;2.90;;
54517;SDS011;40423;53.176;6.002;2023-06-14T05:16:11;7.32;;;3.00;;
54517;SDS011;40423;53.176;6.002;2023-06-14T05:18:37;4.47;;;2.85;;
54517;SDS011;40423;53.176;6.002;2023-06-14T05:21:05;8.52;;;3.53;;
54517;SDS011;40423;53.176;6.002;2023-06-14T05:23:31;6.32;;;3.28;;
54517;SDS011;40423;53.176;6.002;2023-06-14T05:25:57;4.70;;;2.88;;
54517;SDS011;40423;53.176;6.002;2023-06-14T05:28:23;5.50;;;2.90;;
54517;SDS011;40423;53.176;6.002;2023-06-14T05:30:51;8.07;;;2.50;;
54517;SDS011;40423;53.176;6.002;2023-06-14T05:33:17;6.25;;;3.33;;
54517;SDS011;40423;53.176;6.002;2023-06-14T05:35:42;4.10;;;2.50;;
54517;SDS011;40423;53.176;6.002;2023-06-14T05:38:08;7.57;;;3.10;;
54517;SDS011;40423;53.176;6.002;2023-06-14T05:40:34;5.82;;;3.05;;
54517;SDS011;40423;53.176;6.002;2023-06-14T05:42:59;7.63;;;3.72;;
54517;SDS011;40423;53.176;6.002;2023-06-14T05:45:25;7.18;;;3.05;;
54517;SDS011;40423;53.176;6.002;2023-06-14T05:47:51;8.38;;;3.10;;
54517;SDS011;40423;53.176;6.002;2023-06-14T05:50:19;7.55;;;3.05;;
54517;SDS011;40423;53.176;6.002;2023-06-14T05:52:45;5.85;;;3.28;;
54517;SDS011;40423;53.176;6.002;2023-06-14T05:55:11;6.20;;;3.22;;
54517;SDS011;40423;53.176;6.002;2023-06-14T05:57:37;6.78;;;3.28;;
54517;SDS011;40423;53.176;6.002;2023-06-14T06:00:03;8.27;;;3.10;;
54517;SDS011;40423;53.176;6.002;2023-06-14T06:02:39;7.65;;;3.35;;
54517;SDS011;40423;53.176;6.002;2023-06-14T06:05:06;6.13;;;3.15;;
54517;SDS011;40423;53.176;6.002;2023-06-14T06:07:32;5.35;;;3.05;;
54517;SDS011;40423;53.176;6.002;2023-06-14T06:09:58;7.00;;;3.15;;
54517;SDS011;40423;53.176;6.002;2023-06-14T06:12:23;4.25;;;2.90;;
54517;SDS011;40423;53.176;6.002;2023-06-14T06:14:49;5.07;;;3.15;;
54517;SDS011;40423;53.176;6.002;2023-06-14T06:17:15;8.52;;;3.10;;
54517;SDS011;40423;53.176;6.002;2023-06-14T06:19:40;7.53;;;2.80;;
54517;SDS011;40423;53.176;6.002;2023-06-14T06:22:06;6.45;;;3.42;;
54517;SDS011;40423;53.176;6.002;2023-06-14T06:24:35;6.30;;;2.97;;
54517;SDS011;40423;53.176;6.002;2023-06-14T06:27:01;5.82;;;2.88;;
54517;SDS011;40423;53.176;6.002;2023-06-14T06:29:27;8.25;;;3.42;;
54517;SDS011;40423;53.176;6.002;2023-06-14T06:31:53;9.27;;;3.35;;
54517;SDS011;40423;53.176;6.002;2023-06-14T06:34:18;8.55;;;3.47;;
54517;SDS011;40423;53.176;6.002;2023-06-14T06:36:44;7.80;;;3.20;;
54517;SDS011;40423;53.176;6.002;2023-06-14T06:39:10;4.63;;;2.67;;
54517;SDS011;40423;53.176;6.002;2023-06-14T06:41:37;7.47;;;3.33;;
54517;SDS011;40423;53.176;6.002;2023-06-14T06:44:05;9.30;;;3.08;;
54517;SDS011;40423;53.176;6.002;2023-06-14T06:46:32;5.95;;;2.53;;
54517;SDS011;40423;53.176;6.002;2023-06-14T06:48:58;4.35;;;2.83;;
54517;SDS011;40423;53.176;6.002;2023-06-14T06:51:25;4.80;;;2.90;;
54517;SDS011;40423;53.176;6.002;2023-06-14T06:53:53;6.15;;;2.85;;
54517;SDS011;40423;53.176;6.002;2023-06-14T06:56:20;4.55;;;2.80;;
54517;SDS011;40423;53.176;6.002;2023-06-14T06:58:48;6.25;;;2.70;;
54517;SDS011;40423;53.176;6.002;2023-06-14T07:01:14;4.63;;;2.67;;
54517;SDS011;40423;53.176;6.002;2023-06-14T07:03:41;4.75;;;2.97;;
54517;SDS011;40423;53.176;6.002;2023-06-14T07:06:06;5.00;;;2.60;;
54517;SDS011;40423;53.176;6.002;2023-06-14T07:08:32;6.30;;;2.95;;
54517;SDS011;40423;53.176;6.002;2023-06-14T07:10:58;4.20;;;2.60;;
54517;SDS011;40423;53.176;6.002;2023-06-14T07:13:24;4.78;;;2.47;;
54517;SDS011;40423;53.176;6.002;2023-06-14T07:15:50;3.40;;;2.13;;
54517;SDS011;40423;53.176;6.002;2023-06-14T07:18:18;4.95;;;2.30;;
54517;SDS011;40423;53.176;6.002;2023-06-14T07:20:44;5.18;;;1.98;;
54517;SDS011;40423;53.176;6.002;2023-06-14T07:23:09;4.32;;;2.63;;
54517;SDS011;40423;53.176;6.002;2023-06-14T07:25:35;7.53;;;2.80;;
54517;SDS011;40423;53.176;6.002;2023-06-14T07:28:01;6.32;;;2.45;;
54517;SDS011;40423;53.176;6.002;2023-06-14T07:30:27;6.90;;;2.40;;
54517;SDS011;40423;53.176;6.002;2023-06-14T07:32:55;4.53;;;2.50;;
54517;SDS011;40423;53.176;6.002;2023-06-14T07:35:21;5.68;;;2.78;;
54517;SDS011;40423;53.176;6.002;2023-06-14T07:37:47;5.03;;;2.13;;
54517;SDS011;40423;53.176;6.002;2023-06-14T07:40:13;5.35;;;2.17;;
54517;SDS011;40423;53.176;6.002;2023-06-14T07:42:39;6.15;;;2.40;;
54517;SDS011;40423;53.176;6.002;2023-06-14T07:45:05;8.02;;;2.35;;
54517;SDS011;40423;53.176;6.002;2023-06-14T07:47:31;5.10;;;2.28;;
54517;SDS011;40423;53.176;6.002;2023-06-14T07:49:58;5.45;;;2.40;;
54517;SDS011;40423;53.176;6.002;2023-06-14T07:52:23;6.93;;;2.47;;
54517;SDS011;40423;53.176;6.002;2023-06-14T07:54:50;3.33;;;2.35;;
54517;SDS011;40423;53.176;6.002;2023-06-14T07:57:15;4.32;;;2.15;;
54517;SDS011;40423;53.176;6.002;2023-06-14T07:59:41;4.15;;;2.38;;
54517;SDS011;40423;53.176;6.002;2023-06-14T08:02:07;5.13;;;2.50;;
54517;SDS011;40423;53.176;6.002;2023-06-14T08:04:33;7.75;;;2.30;;
54517;SDS011;40423;53.176;6.002;2023-06-14T08:06:59;4.53;;;2.17;;
54517;SDS011;40423;53.176;6.002;2023-06-14T08:09:27;4.13;;;2.60;;
54517;SDS011;40423;53.176;6.002;2023-06-14T08:11:54;6.40;;;2.30;;
54517;SDS011;40423;53.176;6.002;2023-06-14T08:14:20;5.82;;;2.42;;
54517;SDS011;40423;53.176;6.002;2023-06-14T08:16:45;4.40;;;2.10;;
54517;SDS011;40423;53.176;6.002;2023-06-14T08:19:11;4.15;;;2.30;;
54517;SDS011;40423;53.176;6.002;2023-06-14T08:21:37;4.30;;;2.30;;
54517;SDS011;40423;53.176;6.002;2023-06-14T08:24:02;6.68;;;2.40;;
54517;SDS011;40423;53.176;6.002;2023-06-14T08:26:29;5.03;;;2.53;;
54517;SDS011;40423;53.176;6.002;2023-06-14T08:28:55;5.78;;;2.30;;
54517;SDS011;40423;53.176;6.002;2023-06-14T08:31:21;3.72;;;2.22;;
54517;SDS011;40423;53.176;6.002;2023-06-14T08:33:47;3.30;;;2.03;;
54517;SDS011;40423;53.176;6.002;2023-06-14T08:36:13;7.65;;;2.40;;
54517;SDS011;40423;53.176;6.002;2023-06-14T08:38:39;4.95;;;2.40;;
54517;SDS011;40423;53.176;6.002;2023-06-14T08:41:05;3.03;;;2.20;;
54517;SDS011;40423;53.176;6.002;2023-06-14T08:43:33;5.03;;;2.35;;
54517;SDS011;40423;53.176;6.002;2023-06-14T08:46:03;9.65;;;2.70;;
54517;SDS011;40423;53.176;6.002;2023-06-14T08:48:31;5.03;;;2.25;;
54517;SDS011;40423;53.176;6.002;2023-06-14T08:51:01;3.72;;;2.10;;
54517;SDS011;40423;53.176;6.002;2023-06-14T08:53:32;5.70;;;2.08;;
54517;SDS011;40423;53.176;6.002;2023-06-14T08:56:02;5.47;;;2.08;;
54517;SDS011;40423;53.176;6.002;2023-06-14T08:58:33;5.05;;;2.40;;
54517;SDS011;40423;53.176;6.002;2023-06-14T09:01:00;6.20;;;2.25;;
54517;SDS011;40423;53.176;6.002;2023-06-14T09:03:26;6.00;;;2.20;;
54517;SDS011;40423;53.176;6.002;2023-06-14T09:05:59;2.85;;;2.15;;
54517;SDS011;40423;53.176;6.002;2023-06-14T09:08:26;6.97;;;2.60;;
54517;SDS011;40423;53.176;6.002;2023-06-14T09:10:55;4.47;;;2.00;;
54517;SDS011;40423;53.176;6.002;2023-06-14T09:13:21;4.28;;;2.40;;
54517;SDS011;40423;53.176;6.002;2023-06-14T09:15:47;3.63;;;2.33;;
54517;SDS011;40423;53.176;6.002;2023-06-14T09:18:13;5.95;;;2.00;;
54517;SDS011;40423;53.176;6.002;2023-06-14T09:20:39;5.60;;;2.10;;
54517;SDS011;40423;53.176;6.002;2023-06-14T09:23:06;8.85;;;2.63;;
54517;SDS011;40423;53.176;6.002;2023-06-14T09:25:34;5.13;;;2.08;;
54517;SDS011;40423;53.176;6.002;2023-06-14T09:28:07;5.18;;;2.28;;
54517;SDS011;40423;53.176;6.002;2023-06-14T09:30:33;5.05;;;2.03;;
54517;SDS011;40423;53.176;6.002;2023-06-14T09:33:00;5.55;;;2.45;;
54517;SDS011;40423;53.176;6.002;2023-06-14T09:35:26;4.03;;;2.50;;
54517;SDS011;40423;53.176;6.002;2023-06-14T09:37:54;3.60;;;1.98;;
54517;SDS011;40423;53.176;6.002;2023-06-14T09:40:20;3.90;;;2.13;;
54517;SDS011;40423;53.176;6.002;2023-06-14T09:42:47;3.55;;;2.10;;
54517;SDS011;40423;53.176;6.002;2023-06-14T09:45:13;4.50;;;2.25;;
54517;SDS011;40423;53.176;6.002;2023-06-14T09:47:44;3.00;;;2.00;;
54517;SDS011;40423;53.176;6.002;2023-06-14T09:50:10;3.88;;;1.83;;
54517;SDS011;40423;53.176;6.002;2023-06-14T09:52:36;6.70;;;1.95;;
54517;SDS011;40423;53.176;6.002;2023-06-14T09:55:02;6.25;;;2.20;;
54517;SDS011;40423;53.176;6.002;2023-06-14T09:57:38;6.47;;;2.72;;
54517;SDS011;40423;53.176;6.002;2023-06-14T10:00:07;3.83;;;2.08;;
54517;SDS011;40423;53.176;6.002;2023-06-14T10:02:36;6.82;;;2.88;;
54517;SDS011;40423;53.176;6.002;2023-06-14T10:05:07;3.17;;;2.10;;
54517;SDS011;40423;53.176;6.002;2023-06-14T10:07:42;4.82;;;2.38;;
54517;SDS011;40423;53.176;6.002;2023-06-14T10:10:17;3.03;;;2.10;;
54517;SDS011;40423;53.176;6.002;2023-06-14T10:12:43;4.05;;;2.13;;
54517;SDS011;40423;53.176;6.002;2023-06-14T10:15:10;5.88;;;2.10;;
54517;SDS011;40423;53.176;6.002;2023-06-14T10:17:57;3.80;;;2.17;;
54517;SDS011;40423;53.176;6.002;2023-06-14T10:20:55;7.40;;;2.60;;
54517;SDS011;40423;53.176;6.002;2023-06-14T10:23:24;4.93;;;2.00;;
54517;SDS011;40423;53.176;6.002;2023-06-14T10:25:58;4.47;;;2.40;;
54517;SDS011;40423;53.176;6.002;2023-06-14T10:28:25;9.88;;;2.20;;
54517;SDS011;40423;53.176;6.002;2023-06-14T10:31:01;3.25;;;2.30;;
54517;SDS011;40423;53.176;6.002;2023-06-14T10:33:30;3.22;;;2.10;;
54517;SDS011;40423;53.176;6.002;2023-06-14T10:36:06;6.22;;;2.10;;
54517;SDS011;40423;53.176;6.002;2023-06-14T10:38:33;7.22;;;2.78;;
54517;SDS011;40423;53.176;6.002;2023-06-14T10:41:01;4.25;;;2.58;;
54517;SDS011;40423;53.176;6.002;2023-06-14T10:43:28;4.78;;;2.42;;
54517;SDS011;40423;53.176;6.002;2023-06-14T10:48:41;4.63;;;2.63;;
54517;SDS011;40423;53.176;6.002;2023-06-14T10:51:19;6.60;;;2.10;;
54517;SDS011;40423;53.176;6.002;2023-06-14T10:53:49;11.52;;;2.42;;
54517;SDS011;40423;53.176;6.002;2023-06-14T10:56:22;6.38;;;2.45;;
54517;SDS011;40423;53.176;6.002;2023-06-14T10:58:51;5.70;;;2.13;;
54517;SDS011;40423;53.176;6.002;2023-06-14T11:01:19;5.25;;;2.38;;
54517;SDS011;40423;53.176;6.002;2023-06-14T11:03:57;6.82;;;2.35;;
54517;SDS011;40423;53.176;6.002;2023-06-14T11:06:33;4.45;;;2.30;;
54517;SDS011;40423;53.176;6.002;2023-06-14T11:12:14;4.43;;;2.22;;
54517;SDS011;40423;53.176;6.002;2023-06-14T11:14:42;4.85;;;2.42;;
54517;SDS011;40423;53.176;6.002;2023-06-14T11:17:12;7.25;;;2.38;;
54517;SDS011;40423;53.176;6.002;2023-06-14T11:19:38;4.90;;;2.20;;
54517;SDS011;40423;53.176;6.002;2023-06-14T11:22:04;3.10;;;2.25;;
54517;SDS011;40423;53.176;6.002;2023-06-14T11:24:31;4.55;;;2.50;;
54517;SDS011;40423;53.176;6.002;2023-06-14T11:26:58;4.60;;;2.65;;
54517;SDS011;40423;53.176;6.002;2023-06-14T11:29:23;4.72;;;2.20;;
54517;SDS011;40423;53.176;6.002;2023-06-14T11:31:50;3.75;;;2.28;;
54517;SDS011;40423;53.176;6.002;2023-06-14T11:34:16;5.72;;;2.38;;
54517;SDS011;40423;53.176;6.002;2023-06-14T11:36:43;5.63;;;1.98;;
54517;SDS011;40423;53.176;6.002;2023-06-14T11:39:08;8.63;;;2.22;;
54517;SDS011;40423;53.176;6.002;2023-06-14T11:44:07;7.00;;;2.00;;
54517;SDS011;40423;53.176;6.002;2023-06-14T11:46:33;4.40;;;2.10;;
54517;SDS011;40423;53.176;6.002;2023-06-14T11:48:59;7.30;;;2.78;;
54517;SDS011;40423;53.176;6.002;2023-06-14T11:51:29;4.75;;;2.35;;
54517;SDS011;40423;53.176;6.002;2023-06-14T11:53:58;4.25;;;2.17;;
54517;SDS011;40423;53.176;6.002;2023-06-14T11:56:24;4.90;;;1.95;;
54517;SDS011;40423;53.176;6.002;2023-06-14T11:58:52;6.57;;;2.35;;
54517;SDS011;40423;53.176;6.002;2023-06-14T12:01:21;10.57;;;2.42;;
54517;SDS011;40423;53.176;6.002;2023-06-14T12:03:48;4.57;;;2.28;;
54517;SDS011;40423;53.176;6.002;2023-06-14T12:06:25;7.85;;;3.08;;
54517;SDS011;40423;53.176;6.002;2023-06-14T12:08:57;7.03;;;2.05;;
54517;SDS011;40423;53.176;6.002;2023-06-14T12:11:23;6.13;;;2.60;;
54517;SDS011;40423;53.176;6.002;2023-06-14T12:13:53;4.47;;;2.08;;
54517;SDS011;40423;53.176;6.002;2023-06-14T12:16:18;5.20;;;2.03;;
54517;SDS011;40423;53.176;6.002;2023-06-14T12:18:45;2.22;;;1.88;;
54517;SDS011;40423;53.176;6.002;2023-06-14T12:21:10;4.32;;;2.00;;
54517;SDS011;40423;53.176;6.002;2023-06-14T12:23:43;7.65;;;2.17;;
54517;SDS011;40423;53.176;6.002;2023-06-14T12:26:17;3.10;;;2.25;;
54517;SDS011;40423;53.176;6.002;2023-06-14T12:28:47;4.53;;;2.00;;
54517;SDS011;40423;53.176;6.002;2023-06-14T12:31:13;6.65;;;1.88;;
54517;SDS011;40423;53.176;6.002;2023-06-14T12:33:41;4.88;;;2.67;;
54517;SDS011;40423;53.176;6.002;2023-06-14T12:36:08;4.30;;;1.85;;
54517;SDS011;40423;53.176;6.002;2023-06-14T12:38:35;6.93;;;2.33;;
54517;SDS011;40423;53.176;6.002;2023-06-14T12:41:02;4.38;;;1.70;;
54517;SDS011;40423;53.176;6.002;2023-06-14T12:43:31;4.93;;;1.63;;
54517;SDS011;40423;53.176;6.002;2023-06-14T12:45:56;4.90;;;1.95;;
54517;SDS011;40423;53.176;6.002;2023-06-14T12:48:22;4.80;;;2.05;;
54517;SDS011;40423;53.176;6.002;2023-06-14T12:50:48;6.90;;;2.20;;
54517;SDS011;40423;53.176;6.002;2023-06-14T12:53:14;3.72;;;1.70;;
54517;SDS011;40423;53.176;6.002;2023-06-14T12:55:40;3.80;;;1.80;;
54517;SDS011;40423;53.176;6.002;2023-06-14T12:58:06;3.88;;;1.40;;
54517;SDS011;40423;53.176;6.002;2023-06-14T13:00:32;3.35;;;1.75;;
54517;SDS011;40423;53.176;6.002;2023-06-14T13:02:57;6.07;;;1.73;;
54517;SDS011;40423;53.176;6.002;2023-06-14T13:05:23;8.70;;;1.77;;
54517;SDS011;40423;53.176;6.002;2023-06-14T13:07:50;4.45;;;1.63;;
54517;SDS011;40423;53.176;6.002;2023-06-14T13:10:16;2.45;;;1.58;;
54517;SDS011;40423;53.176;6.002;2023-06-14T13:12:42;3.33;;;1.60;;
54517;SDS011;40423;53.176;6.002;2023-06-14T13:15:08;5.47;;;1.50;;
54517;SDS011;40423;53.176;6.002;2023-06-14T13:17:35;4.72;;;1.52;;
54517;SDS011;40423;53.176;6.002;2023-06-14T13:20:06;3.72;;;1.50;;
54517;SDS011;40423;53.176;6.002;2023-06-14T13:22:36;3.72;;;1.65;;
54517;SDS011;40423;53.176;6.002;2023-06-14T13:25:03;5.22;;;1.83;;
54517;SDS011;40423;53.176;6.002;2023-06-14T13:27:29;3.45;;;1.80;;
54517;SDS011;40423;53.176;6.002;2023-06-14T13:29:55;3.58;;;1.60;;
54517;SDS011;40423;53.176;6.002;2023-06-14T13:32:21;3.22;;;1.65;;
54517;SDS011;40423;53.176;6.002;2023-06-14T13:34:47;5.40;;;1.80;;
54517;SDS011;40423;53.176;6.002;2023-06-14T13:37:54;4.18;;;1.80;;
54517;SDS011;40423;53.176;6.002;2023-06-14T13:40:20;3.05;;;1.60;;
54517;SDS011;40423;53.176;6.002;2023-06-14T13:42:46;4.55;;;1.75;;
54517;SDS011;40423;53.176;6.002;2023-06-14T13:45:12;5.35;;;1.60;;
54517;SDS011;40423;53.176;6.002;2023-06-14T13:47:38;4.63;;;1.63;;
54517;SDS011;40423;53.176;6.002;2023-06-14T13:50:04;7.50;;;1.60;;
54517;SDS011;40423;53.176;6.002;2023-06-14T13:52:31;2.63;;;1.60;;
54517;SDS011;40423;53.176;6.002;2023-06-14T13:54:57;2.45;;;1.77;;
54517;SDS011;40423;53.176;6.002;2023-06-14T13:57:23;2.10;;;1.67;;
54517;SDS011;40423;53.176;6.002;2023-06-14T13:59:48;7.47;;;1.63;;
54517;SDS011;40423;53.176;6.002;2023-06-14T14:02:15;6.88;;;1.83;;
54517;SDS011;40423;53.176;6.002;2023-06-14T14:04:41;4.45;;;1.77;;
54517;SDS011;40423;53.176;6.002;2023-06-14T14:07:06;2.63;;;1.65;;
54517;SDS011;40423;53.176;6.002;2023-06-14T14:09:33;3.08;;;1.88;;
54517;SDS011;40423;53.176;6.002;2023-06-14T14:11:59;2.67;;;1.52;;
54517;SDS011;40423;53.176;6.002;2023-06-14T14:14:27;5.75;;;1.85;;
54517;SDS011;40423;53.176;6.002;2023-06-14T14:16:53;3.85;;;1.60;;
54517;SDS011;40423;53.176;6.002;2023-06-14T14:19:23;3.65;;;1.67;;
54517;SDS011;40423;53.176;6.002;2023-06-14T14:21:49;4.22;;;1.70;;
54517;SDS011;40423;53.176;6.002;2023-06-14T14:24:15;5.07;;;1.85;;
54517;SDS011;40423;53.176;6.002;2023-06-14T14:26:41;3.33;;;1.73;;
54517;SDS011;40423;53.176;6.002;2023-06-14T14:29:07;2.25;;;1.40;;
54517;SDS011;40423;53.176;6.002;2023-06-14T14:31:33;2.97;;;1.60;;
54517;SDS011;40423;53.176;6.002;2023-06-14T14:34:00;5.53;;;1.75;;
54517;SDS011;40423;53.176;6.002;2023-06-14T14:36:25;4.30;;;1.67;;
54517;SDS011;40423;53.176;6.002;2023-06-14T14:38:51;5.20;;;1.70;;
54517;SDS011;40423;53.176;6.002;2023-06-14T14:41:17;3.30;;;1.65;;
54517;SDS011;40423;53.176;6.002;2023-06-14T14:43:42;5.57;;;1.80;;
54517;SDS011;40423;53.176;6.002;2023-06-14T14:46:08;4.32;;;2.00;;
54517;SDS011;40423;53.176;6.002;2023-06-14T14:48:34;5.80;;;2.10;;
54517;SDS011;40423;53.176;6.002;2023-06-14T14:51:00;5.75;;;2.03;;
54517;SDS011;40423;53.176;6.002;2023-06-14T14:53:26;6.57;;;2.67;;
54517;SDS011;40423;53.176;6.002;2023-06-14T14:55:51;7.45;;;2.95;;
54517;SDS011;40423;53.176;6.002;2023-06-14T14:58:17;5.43;;;2.40;;
54517;SDS011;40423;53.176;6.002;2023-06-14T15:00:46;6.07;;;2.88;;
54517;SDS011;40423;53.176;6.002;2023-06-14T15:03:13;6.15;;;2.60;;